Time;durP1;ratioP1;P1;durP2;ratioP2;P2;SDS_P1;SDS_P2;PMS_P1;PMS_P2;Temp;Humidity;BMP_temperature;BMP_pressure;BME280_temperature;BME280_humidity;BME280_pressure;Samples;Min_cycle;Max_cycle;Signal;HPM_P1;HPM_P2
2023/09/11 00:00:08;;;;;;;6.43;5.10;;;;;;;14.23;100.00;93215.00;2099601;28;20696;-84
2023/09/11 00:01:09;;;;;;;5.95;5.35;;;;;;;14.33;100.00;93215.81;2106343;28;20126;-84
2023/09/11 00:02:11;;;;;;;6.28;5.63;;;;;;;14.27;100.00;93210.25;2096831;28;20036;-85
2023/09/11 00:03:12;;;;;;;8.13;5.57;;;;;;;14.26;100.00;93213.38;2096951;28;20409;-83
2023/09/11 00:04:14;;;;;;;5.57;5.07;;;;;;;14.29;100.00;93204.44;2106115;28;20549;-83
2023/09/11 00:05:18;;;;;;;6.43;5.13;;;;;;;14.24;100.00;93205.75;2106462;28;20396;-83
2023/09/11 00:06:19;;;;;;;6.10;5.60;;;;;;;14.32;100.00;93206.25;2101290;28;20024;-84
2023/09/11 00:07:20;;;;;;;6.57;5.90;;;;;;;14.37;100.00;93205.69;2099963;28;20031;-84
2023/09/11 00:08:22;;;;;;;5.82;5.20;;;;;;;14.34;100.00;93201.19;2106044;28;20065;-84
2023/09/11 00:09:26;;;;;;;7.70;5.75;;;;;;;14.24;100.00;93200.38;2106598;28;20024;-84
2023/09/11 00:10:32;;;;;;;5.93;5.30;;;;;;;14.21;100.00;93209.31;2100755;28;20028;-84
2023/09/11 00:11:34;;;;;;;6.70;5.97;;;;;;;14.22;100.00;93202.72;2097737;28;20606;-83
2023/09/11 00:12:35;;;;;;;6.53;5.90;;;;;;;14.09;100.00;93199.34;2104647;27;20156;-83
2023/09/11 00:13:37;;;;;;;6.68;5.28;;;;;;;14.14;100.00;93204.19;2105534;28;20019;-84
2023/09/11 00:14:40;;;;;;;6.97;5.63;;;;;;;14.10;100.00;93204.31;2081619;28;20040;-84
2023/09/11 00:15:41;;;;;;;6.43;5.82;;;;;;;14.09;100.00;93200.13;2081004;28;20048;-84
2023/09/11 00:16:43;;;;;;;7.93;5.20;;;;;;;14.03;100.00;93201.84;2082229;28;20112;-83
2023/09/11 00:17:45;;;;;;;6.65;5.88;;;;;;;14.07;100.00;93199.03;2098108;28;20013;-84
2023/09/11 00:18:46;;;;;;;5.75;5.25;;;;;;;14.06;100.00;93194.84;2105629;28;20377;-83
2023/09/11 00:19:48;;;;;;;6.00;5.50;;;;;;;14.19;100.00;93200.94;2089786;28;20397;-84
2023/09/11 00:20:49;;;;;;;6.10;5.57;;;;;;;14.14;100.00;93190.75;2091525;28;20024;-83
2023/09/11 00:21:51;;;;;;;7.47;5.80;;;;;;;14.09;100.00;93193.97;2102657;28;20055;-83
2023/09/11 00:22:52;;;;;;;7.18;5.40;;;;;;;14.02;100.00;93192.28;2105924;28;20103;-84
2023/09/11 00:23:54;;;;;;;6.53;5.60;;;;;;;13.91;100.00;93191.13;2097216;28;20081;-84
2023/09/11 00:24:55;;;;;;;7.50;5.57;;;;;;;13.88;100.00;93192.03;2109477;28;20022;-83
2023/09/11 00:25:57;;;;;;;8.23;5.60;;;;;;;13.97;100.00;93192.84;2101325;28;20431;-83
2023/09/11 00:26:58;;;;;;;6.78;5.65;;;;;;;13.96;100.00;93191.34;2099766;28;20518;-83
2023/09/11 00:28:00;;;;;;;7.20;5.40;;;;;;;13.93;100.00;93189.53;2097492;28;20032;-83
2023/09/11 00:29:02;;;;;;;6.30;5.70;;;;;;;13.91;100.00;93191.13;2097066;28;20500;-84
2023/09/11 00:30:06;;;;;;;5.85;5.38;;;;;;;13.86;100.00;93184.38;2097392;28;20063;-84
2023/09/11 00:31:08;;;;;;;6.88;6.07;;;;;;;13.83;100.00;93186.00;2093486;28;20071;-84
2023/09/11 00:32:09;;;;;;;5.82;5.22;;;;;;;13.80;100.00;93186.88;2091823;28;20025;-83
2023/09/11 00:33:13;;;;;;;6.40;5.80;;;;;;;13.77;100.00;93189.66;2088820;28;20078;-83
2023/09/11 00:34:15;;;;;;;6.82;6.20;;;;;;;13.86;100.00;93184.38;2098664;28;20035;-83
2023/09/11 00:35:16;;;;;;;6.82;5.88;;;;;;;13.88;100.00;93181.28;2097297;28;20028;-83
2023/09/11 00:36:18;;;;;;;6.22;5.72;;;;;;;13.89;100.00;93178.13;2097207;28;20423;-83
2023/09/11 00:37:20;;;;;;;6.68;5.57;;;;;;;13.81;100.00;93182.25;2096219;28;20086;-83
2023/09/11 00:38:21;;;;;;;8.25;5.88;;;;;;;13.80;100.00;93183.44;2105312;28;20063;-83
2023/09/11 00:39:22;;;;;;;6.90;5.85;;;;;;;13.79;100.00;93173.88;2090996;28;20017;-84
2023/09/11 00:40:24;;;;;;;7.47;6.07;;;;;;;13.87;100.00;93183.19;2087860;28;20117;-83
2023/09/11 00:41:26;;;;;;;7.10;6.15;;;;;;;13.88;100.00;93182.00;2089451;28;20025;-84
2023/09/11 00:42:30;;;;;;;6.93;6.22;;;;;;;13.92;100.00;93182.66;2098194;28;20454;-84
2023/09/11 00:43:32;;;;;;;7.10;6.38;;;;;;;13.77;100.00;93176.22;2095059;28;20040;-83
2023/09/11 00:44:34;;;;;;;6.93;6.10;;;;;;;13.76;100.00;93170.09;2092433;28;20024;-83
2023/09/11 00:45:36;;;;;;;6.78;6.07;;;;;;;13.74;100.00;93177.09;2089910;28;20035;-83
2023/09/11 00:46:39;;;;;;;7.15;6.43;;;;;;;13.69;100.00;93169.59;2105120;28;20036;-83
2023/09/11 00:47:44;;;;;;;6.65;5.93;;;;;;;13.60;100.00;93165.63;2097501;28;20024;-83
2023/09/11 00:48:51;;;;;;;9.38;6.10;;;;;;;13.61;100.00;93174.47;2102578;28;20059;-83
2023/09/11 00:49:57;;;;;;;6.65;6.00;;;;;;;13.62;100.00;93170.59;2095104;28;20027;-83
2023/09/11 00:51:00;;;;;;;7.43;5.90;;;;;;;13.65;100.00;93168.94;2082440;28;20086;-84
2023/09/11 00:52:02;;;;;;;7.07;6.38;;;;;;;13.67;100.00;93170.03;2089909;28;20029;-84
2023/09/11 00:53:07;;;;;;;7.13;6.20;;;;;;;13.64;100.00;93168.19;2089833;28;20017;-84
2023/09/11 00:54:10;;;;;;;6.90;6.20;;;;;;;13.66;100.00;93170.47;2098483;28;20448;-83
2023/09/11 00:55:11;;;;;;;6.53;5.57;;;;;;;13.67;100.00;93169.28;2097741;28;20039;-84
2023/09/11 00:56:13;;;;;;;5.95;5.35;;;;;;;13.58;100.00;93168.00;2081040;28;20621;-84
2023/09/11 00:57:18;;;;;;;7.82;5.72;;;;;;;13.59;100.00;93166.81;2097089;28;20029;-83
2023/09/11 00:58:24;;;;;;;6.55;5.40;;;;;;;13.60;100.00;93168.31;2099006;28;20454;-83
2023/09/11 00:59:25;;;;;;;6.85;5.65;;;;;;;13.58;100.00;93159.94;2098052;28;20024;-84
2023/09/11 01:01:04;;;;;;;6.57;5.80;;;;;;;13.51;100.00;93167.47;2094190;28;20060;-84
2023/09/11 01:02:06;;;;;;;7.35;5.47;;;;;;;13.54;100.00;93167.38;2095799;28;20027;-83
2023/09/11 01:03:08;;;;;;;5.55;5.05;;;;;;;13.66;100.00;93167.78;2104975;28;20036;-83
2023/09/11 01:04:10;;;;;;;7.43;6.13;;;;;;;13.57;100.00;93173.81;2088766;28;20025;-83
2023/09/11 01:05:12;;;;;;;6.55;4.70;;;;;;;13.55;100.00;93163.50;2097096;28;20028;-83
2023/09/11 01:06:13;;;;;;;7.10;5.93;;;;;;;13.47;100.00;93170.28;2097500;28;20024;-83
2023/09/11 01:07:16;;;;;;;7.13;5.85;;;;;;;13.49;100.00;93159.88;2106894;28;20028;-84
2023/09/11 01:08:19;;;;;;;6.10;5.50;;;;;;;13.49;100.00;93167.19;2090336;28;20025;-83
2023/09/11 01:09:20;;;;;;;6.22;5.72;;;;;;;13.57;100.00;93163.81;2100425;28;20695;-83
2023/09/11 01:10:22;;;;;;;6.35;5.75;;;;;;;13.57;100.00;93163.06;2098219;28;20086;-83
2023/09/11 01:11:27;;;;;;;6.22;5.68;;;;;;;13.60;100.00;93162.19;2099060;28;20043;-83
2023/09/11 01:12:28;;;;;;;6.88;5.72;;;;;;;13.47;100.00;93159.53;2096387;28;20024;-82
2023/09/11 01:13:29;;;;;;;7.97;6.07;;;;;;;13.40;100.00;93157.09;2101369;28;20043;-82
2023/09/11 01:14:35;;;;;;;6.47;5.90;;;;;;;13.35;100.00;93154.94;2105444;28;20119;-83
2023/09/11 01:15:58;;;;;;;7.82;5.38;;;;;;;13.37;100.00;93160.63;2099022;28;20183;-83
2023/09/11 01:17:24;;;;;;;6.95;5.45;;;;;;;13.36;100.00;93159.13;2108438;28;20111;-83
2023/09/11 01:18:46;;;;;;;6.70;5.57;;;;;;;13.26;100.00;93158.28;2102665;28;20108;-83
2023/09/11 01:20:09;;;;;;;9.63;5.57;;;;;;;13.29;100.00;93149.34;2111456;27;20340;-83
2023/09/11 01:21:20;;;;;;;6.68;5.72;;;;;;;13.22;100.00;93154.19;2092596;28;20044;-83
2023/09/11 01:22:53;;;;;;;6.20;5.60;;;;;;;13.19;100.00;93153.09;2099026;28;20043;-83
2023/09/11 01:24:14;;;;;;;5.65;5.15;;;;;;;13.25;100.00;93151.41;2109644;28;20102;-83
2023/09/11 01:25:52;;;;;;;6.30;5.70;;;;;;;13.26;100.00;93146.81;2107365;28;20024;-83
2023/09/11 01:27:06;;;;;;;5.93;5.38;;;;;;;13.31;100.00;93149.69;2105348;28;20085;-83
2023/09/11 01:28:21;;;;;;;8.68;5.85;;;;;;;13.32;100.00;93155.81;2102882;28;20031;-83
2023/09/11 01:29:25;;;;;;;6.78;5.97;;;;;;;13.28;100.00;93144.44;2103828;28;20024;-83
2023/09/11 01:30:28;;;;;;;6.38;5.75;;;;;;;13.31;100.00;93151.63;2086263;28;20028;-83
2023/09/11 01:31:32;;;;;;;5.82;5.32;;;;;;;13.28;100.00;93142.50;2099759;27;20131;-83
2023/09/11 01:32:35;;;;;;;8.25;5.63;;;;;;;13.32;100.00;93145.06;2097458;28;20030;-83
2023/09/11 01:33:37;;;;;;;8.07;5.90;;;;;;;13.26;100.00;93150.25;2089154;28;20114;-83
2023/09/11 01:34:39;;;;;;;6.53;5.93;;;;;;;13.16;100.00;93150.53;2089008;28;20431;-83
2023/09/11 01:35:44;;;;;;;6.45;5.85;;;;;;;13.23;100.00;93147.66;2089055;28;20025;-83
2023/09/11 01:36:46;;;;;;;6.07;5.50;;;;;;;13.22;100.00;93143.47;2091562;28;20549;-83
2023/09/11 01:37:48;;;;;;;8.05;5.93;;;;;;;13.16;100.00;93145.91;2096946;28;20491;-83
2023/09/11 01:38:50;;;;;;;6.57;5.97;;;;;;;13.19;100.00;93149.69;2088934;28;20028;-82
2023/09/11 01:39:52;;;;;;;6.35;5.60;;;;;;;13.22;100.00;93148.81;2104504;28;20923;-83
2023/09/11 01:40:58;;;;;;;6.78;6.18;;;;;;;13.18;100.00;93146.25;2105310;28;20035;-83
2023/09/11 01:42:07;;;;;;;7.25;5.90;;;;;;;13.19;100.00;93149.69;2089608;28;20029;-83
2023/09/11 01:43:11;;;;;;;6.68;5.82;;;;;;;13.26;100.00;93150.25;2085205;28;20083;-83
2023/09/11 01:44:27;;;;;;;7.20;6.07;;;;;;;13.25;100.00;93150.66;2106053;27;20019;-83
2023/09/11 01:45:31;;;;;;;6.15;5.55;;;;;;;13.09;100.00;93151.50;2116814;27;20096;-82
2023/09/11 01:46:33;;;;;;;6.68;6.03;;;;;;;13.09;100.00;93152.25;2111256;28;20500;-83
2023/09/11 01:47:36;;;;;;;6.30;5.70;;;;;;;13.07;100.00;93151.19;2097183;28;20040;-84
2023/09/11 01:48:42;;;;;;;6.38;5.82;;;;;;;13.10;100.00;93150.31;2097485;28;20030;-84
2023/09/11 01:49:46;;;;;;;6.78;5.95;;;;;;;13.06;100.00;93149.69;2101370;28;20023;-84
2023/09/11 01:50:49;;;;;;;6.07;5.47;;;;;;;13.08;100.00;93152.66;2089276;28;20401;-84
2023/09/11 01:51:53;;;;;;;6.45;5.85;;;;;;;13.09;100.00;93152.25;2088457;28;20119;-84
2023/09/11 01:52:55;;;;;;;6.97;6.05;;;;;;;13.06;100.00;93144.31;2099574;27;20111;-84
2023/09/11 01:53:58;;;;;;;6.20;5.57;;;;;;;12.96;100.00;93146.16;2092406;28;20032;-84
2023/09/11 01:55:00;;;;;;;6.70;5.78;;;;;;;13.04;100.00;93150.13;2100710;28;20024;-84
2023/09/11 01:56:04;;;;;;;7.40;6.28;;;;;;;13.06;100.00;93150.44;2095414;28;20040;-83
2023/09/11 01:57:07;;;;;;;6.75;6.05;;;;;;;12.99;100.00;93147.22;2092733;28;20029;-84
2023/09/11 01:58:08;;;;;;;10.55;6.28;;;;;;;13.08;100.00;93140.03;2088913;28;20021;-83
2023/09/11 02:00:20;;;;;;;7.00;5.45;;;;;;;12.96;100.00;93151.50;2093707;28;20697;-83
2023/09/11 02:01:21;;;;;;;8.38;6.00;;;;;;;12.95;100.00;93151.94;2088889;28;20028;-83
2023/09/11 02:02:23;;;;;;;6.55;5.88;;;;;;;12.97;100.00;93144.22;2087471;28;20052;-83
2023/09/11 02:03:27;;;;;;;6.13;5.63;;;;;;;13.00;100.00;93144.09;2108608;28;20675;-83
2023/09/11 02:04:29;;;;;;;6.38;5.78;;;;;;;13.01;100.00;93142.91;2113621;27;20629;-83
2023/09/11 02:05:30;;;;;;;6.93;6.30;;;;;;;13.10;100.00;93142.28;2099581;28;20036;-83
2023/09/11 02:06:32;;;;;;;7.53;6.10;;;;;;;13.02;100.00;93135.63;2096375;28;20025;-83
2023/09/11 02:07:33;;;;;;;6.68;5.97;;;;;;;13.02;100.00;93144.41;2103594;28;20185;-83
2023/09/11 02:08:35;;;;;;;7.03;6.32;;;;;;;12.99;100.00;93142.59;2097805;28;20070;-83
2023/09/11 02:09:36;;;;;;;6.82;6.03;;;;;;;13.03;100.00;93139.81;2105367;28;20027;-83
2023/09/11 02:10:38;;;;;;;8.68;6.22;;;;;;;13.02;100.00;93139.06;2088529;28;20150;-83
2023/09/11 02:11:39;;;;;;;8.85;5.95;;;;;;;13.07;100.00;93143.13;2103594;28;20093;-83
2023/09/11 02:12:41;;;;;;;6.32;5.70;;;;;;;13.03;100.00;93142.47;2104980;28;20117;-83
2023/09/11 02:13:44;;;;;;;6.47;5.88;;;;;;;13.02;100.00;93127.56;2095035;28;20023;-83
2023/09/11 02:14:45;;;;;;;8.63;6.10;;;;;;;12.99;100.00;93137.22;2092858;28;20025;-83
2023/09/11 02:15:47;;;;;;;6.15;5.65;;;;;;;12.90;100.00;93134.44;2091868;28;20068;-83
2023/09/11 02:16:51;;;;;;;6.68;5.63;;;;;;;12.93;100.00;93133.59;2097066;28;20420;-83
2023/09/11 02:17:53;;;;;;;8.73;6.03;;;;;;;12.94;100.00;93137.75;2114061;28;20074;-83
2023/09/11 02:18:55;;;;;;;6.40;5.80;;;;;;;12.88;100.00;93136.81;2108489;28;20414;-83
2023/09/11 02:19:57;;;;;;;6.28;5.68;;;;;;;12.85;100.00;93134.97;2097092;28;20056;-83
2023/09/11 06:00:40;;;;;;;9.73;7.50;;;;;;;13.18;100.00;93118.66;2609993;22;20020;-93
2023/09/11 06:01:41;;;;;;;10.20;8.00;;;;;;;13.19;100.00;93117.47;2595436;22;20015;-90
2023/09/11 06:02:45;;;;;;;11.20;7.95;;;;;;;13.22;100.00;93108.56;2570256;22;20047;-92
2023/09/11 06:03:46;;;;;;;9.77;7.65;;;;;;;13.25;100.00;93110.38;2572136;22;20353;-91
2023/09/11 06:04:47;;;;;;;9.20;7.32;;;;;;;13.31;100.00;93112.09;2570545;22;20007;-91
2023/09/11 06:05:51;;;;;;;8.90;7.95;;;;;;;13.35;100.00;93112.00;2582968;22;20000;-91
2023/09/11 06:06:55;;;;;;;11.23;7.88;;;;;;;13.41;100.00;93112.19;2583376;22;20008;-92
2023/09/11 06:07:59;;;;;;;8.85;7.45;;;;;;;13.47;100.00;93102.38;2583654;22;20004;-91
2023/09/11 06:09:07;;;;;;;8.27;7.47;;;;;;;13.51;100.00;93111.84;2571422;22;20004;-92
2023/09/11 06:10:10;;;;;;;9.10;7.45;;;;;;;13.58;100.00;93110.84;2572691;22;20479;-91
2023/09/11 06:11:11;;;;;;;8.57;7.78;;;;;;;13.58;100.00;93110.84;2585208;22;20015;-92
2023/09/11 06:12:15;;;;;;;8.82;7.82;;;;;;;13.54;100.00;93118.28;2569911;22;20023;-91
2023/09/11 06:13:19;;;;;;;10.25;7.50;;;;;;;13.58;100.00;93111.59;2571085;22;20001;-90
2023/09/11 06:14:23;;;;;;;9.90;8.00;;;;;;;13.61;100.00;93110.00;2570645;22;20095;-90
2023/09/11 06:15:29;;;;;;;8.93;8.00;;;;;;;13.64;100.00;93103.75;2582799;22;20008;-89
2023/09/11 06:16:33;;;;;;;8.63;7.70;;;;;;;13.74;100.00;93101.88;2581531;22;20030;-90
2023/09/11 06:17:34;;;;;;;8.80;7.50;;;;;;;13.73;100.00;93111.88;2570373;23;20455;-91
2023/09/11 06:18:44;;;;;;;8.82;7.72;;;;;;;13.75;100.00;93106.09;2557097;23;20005;-92
2023/09/11 06:19:45;;;;;;;11.57;7.80;;;;;;;13.80;100.00;93108.94;2561483;23;20005;-91
2023/09/11 06:20:46;;;;;;;10.45;7.35;;;;;;;13.80;100.00;93105.53;2557607;23;20460;-92
2023/09/11 06:21:50;;;;;;;11.70;8.23;;;;;;;13.83;100.00;93105.41;2557422;23;20234;-90
2023/09/11 06:22:55;;;;;;;8.55;7.45;;;;;;;14.21;100.00;93098.31;2571008;22;20087;-90
2023/09/11 06:23:59;;;;;;;12.07;8.38;;;;;;;14.06;100.00;93095.41;2570536;23;20036;-90
2023/09/11 06:25:04;;;;;;;10.68;8.05;;;;;;;13.96;100.00;93101.88;2570957;22;20479;-91
2023/09/11 06:26:08;;;;;;;9.52;7.95;;;;;;;14.02;100.00;93100.91;2594534;22;20027;-91
2023/09/11 06:27:13;;;;;;;9.63;7.75;;;;;;;14.02;100.00;93100.16;2570306;23;20012;-90
2023/09/11 06:28:15;;;;;;;8.88;7.70;;;;;;;14.03;100.00;93102.41;2570839;23;20012;-91
2023/09/11 06:29:19;;;;;;;9.25;7.85;;;;;;;14.00;100.00;93097.88;2570278;23;20020;-90
2023/09/11 06:30:23;;;;;;;9.98;8.60;;;;;;;14.10;100.00;93101.41;2558684;23;20009;-92
2023/09/11 06:31:27;;;;;;;9.75;8.20;;;;;;;14.04;100.00;93103.88;2558552;23;20005;-90
2023/09/11 06:32:32;;;;;;;9.60;8.70;;;;;;;14.06;100.00;93106.91;2558804;23;20028;-92
2023/09/11 06:33:36;;;;;;;11.90;8.50;;;;;;;14.18;100.00;93108.03;2559415;23;20619;-91
2023/09/11 06:34:40;;;;;;;9.48;8.13;;;;;;;14.19;100.00;93103.41;2558964;23;20001;-91
2023/09/11 06:35:43;;;;;;;9.95;8.07;;;;;;;14.14;100.00;93110.09;2558467;23;20005;-94
2023/09/11 06:36:47;;;;;;;10.48;7.88;;;;;;;14.26;100.00;93100.44;2558504;23;20616;-92
2023/09/11 06:37:51;;;;;;;11.07;8.25;;;;;;;14.38;100.00;93104.25;2582876;22;20008;-92
2023/09/11 06:38:55;;;;;;;8.98;7.70;;;;;;;14.46;100.00;93113.56;2583045;22;20083;-91
2023/09/11 06:39:59;;;;;;;10.05;7.72;;;;;;;14.47;100.00;93107.75;2582324;23;20035;-91
2023/09/11 06:41:03;;;;;;;8.40;7.60;;;;;;;14.48;100.00;93101.19;2583048;22;20470;-92
2023/09/11 06:42:07;;;;;;;10.13;8.35;;;;;;;14.50;100.00;93106.16;2594202;22;20000;-93
2023/09/11 06:43:11;;;;;;;10.13;7.90;;;;;;;14.56;100.00;93099.75;2558786;23;20005;-91
2023/09/11 06:44:15;;;;;;;10.70;8.10;;;;;;;14.63;100.00;93103.38;2558944;23;20108;-92
2023/09/11 06:45:20;;;;;;;9.75;8.05;;;;;;;14.69;100.00;93110.41;2559110;23;20005;-92
2023/09/11 06:46:24;;;;;;;9.95;7.88;;;;;;;14.85;100.00;93109.44;2558844;23;20012;-92
2023/09/11 06:47:28;;;;;;;11.80;7.97;;;;;;;14.85;100.00;93112.13;2558901;23;20421;-92
2023/09/11 06:48:31;;;;;;;13.63;7.72;;;;;;;14.90;100.00;93111.56;2558750;23;20001;-92
2023/09/11 06:49:35;;;;;;;9.57;8.05;;;;;;;14.89;100.00;93110.06;2558947;23;20048;-92
2023/09/11 06:50:39;;;;;;;12.77;8.05;;;;;;;14.94;100.00;93103.34;2558566;23;20012;-90
2023/09/11 06:51:43;;;;;;;9.48;7.55;;;;;;;14.97;100.00;93097.84;2571408;22;20008;-90
2023/09/11 06:52:48;;;;;;;8.52;7.65;;;;;;;15.05;100.00;93100.97;2570907;23;20332;-91
2023/09/11 06:53:54;;;;;;;9.35;7.28;;;;;;;15.22;100.00;93098.78;2571504;22;20079;-90
2023/09/11 06:54:55;;;;;;;10.43;7.32;;;;;;;15.29;100.00;93098.50;2571000;23;20382;-93
2023/09/11 06:55:58;;;;;;;10.70;7.30;;;;;;;15.44;100.00;93104.81;2569879;23;20001;-91
2023/09/11 06:57:03;;;;;;;10.20;7.53;;;;;;;15.41;100.00;93104.94;2570230;23;20000;-91
2023/09/11 06:58:06;;;;;;;8.75;7.57;;;;;;;15.45;100.00;93100.16;2558739;23;20092;-91
2023/09/11 06:59:10;;;;;;;8.40;7.40;;;;;;;15.50;100.00;93102.28;2558789;23;20080;-90
2023/09/11 07:00:14;;;;;;;8.32;7.32;;;;;;;15.66;100.00;93096.63;2558326;23;20040;-92
2023/09/11 07:01:18;;;;;;;10.05;7.30;;;;;;;15.71;100.00;93097.97;2558784;23;20000;-90
2023/09/11 07:02:22;;;;;;;9.60;7.47;;;;;;;15.71;100.00;93101.41;2581514;23;20024;-89
2023/09/11 07:03:26;;;;;;;7.97;6.78;;;;;;;15.76;100.00;93102.78;2571013;22;20062;-89
2023/09/11 07:04:30;;;;;;;11.88;7.35;;;;;;;15.79;100.00;93099.19;2570388;23;20254;-90
2023/09/11 07:05:35;;;;;;;9.25;7.32;;;;;;;15.84;100.00;93096.63;2571492;22;20797;-90
2023/09/11 07:06:39;;;;;;;7.55;6.78;;;;;;;15.83;100.00;93103.22;2582324;23;20041;-90
2023/09/11 07:07:43;;;;;;;7.85;7.05;;;;;;;15.90;100.00;93096.81;2582264;23;20027;-90
2023/09/11 07:08:47;;;;;;;8.95;7.40;;;;;;;15.98;100.00;93103.41;2571882;22;20005;-91
2023/09/11 07:09:51;;;;;;;9.55;7.38;;;;;;;16.19;100.00;93099.00;2571215;23;20028;-93
2023/09/11 07:10:55;;;;;;;10.05;7.10;;;;;;;16.29;100.00;93105.91;2560012;23;20004;-90
2023/09/11 07:11:59;;;;;;;9.55;7.10;;;;;;;16.35;100.00;93101.38;2559628;23;20001;-91
2023/09/11 07:13:05;;;;;;;8.75;7.15;;;;;;;16.40;100.00;93101.97;2571885;23;20132;-93
2023/09/11 07:14:12;;;;;;;8.18;7.32;;;;;;;16.39;100.00;93103.94;2573230;22;20004;-91
2023/09/11 07:15:13;;;;;;;11.38;7.25;;;;;;;16.52;100.00;93103.75;2583366;23;20008;-94
2023/09/11 07:16:14;;;;;;;9.02;7.28;;;;;;;16.70;100.00;93102.97;2583855;22;20050;-92
2023/09/11 07:17:18;;;;;;;9.73;6.82;;;;;;;16.75;100.00;93103.09;2570698;23;20009;-91
2023/09/11 07:18:22;;;;;;;10.02;7.93;;;;;;;16.74;100.00;93104.31;2559848;23;20425;-93
2023/09/11 07:19:32;;;;;;;7.75;6.53;;;;;;;16.75;100.00;93102.38;2572208;23;20005;-92
2023/09/11 07:20:33;;;;;;;10.82;7.25;;;;;;;16.92;100.00;93098.09;2573298;23;20070;-92
2023/09/11 07:21:36;;;;;;;8.35;7.18;;;;;;;17.01;100.00;93105.41;2558915;23;20055;-93
2023/09/11 07:22:40;;;;;;;7.43;6.80;;;;;;;17.11;100.00;93101.47;2560506;23;20005;-91
2023/09/11 07:23:44;;;;;;;10.90;7.68;;;;;;;17.23;100.00;93107.88;2560464;23;20076;-93
2023/09/11 07:24:48;;;;;;;7.45;6.65;;;;;;;17.16;100.00;93098.13;2571469;23;20071;-92
2023/09/11 07:25:52;;;;;;;7.90;6.90;;;;;;;17.36;100.00;93098.31;2571815;22;20001;-91
2023/09/11 07:26:56;;;;;;;8.00;7.20;;;;;;;17.47;100.00;93102.47;2570970;23;20000;-91
2023/09/11 07:28:00;;;;;;;9.98;7.38;;;;;;;17.47;100.00;93105.16;2559478;23;20071;-90
2023/09/11 07:29:04;;;;;;;8.50;6.50;;;;;;;17.55;100.00;93107.06;2559429;23;20032;-93
2023/09/11 07:30:09;;;;;;;7.53;6.72;;;;;;;17.52;100.00;93105.31;2559178;23;20063;-90
2023/09/11 07:31:10;;;;;;;10.13;7.38;;;;;;;17.61;100.00;93096.38;2559957;23;20005;-90
2023/09/11 07:32:14;;;;;;;8.95;7.30;;;;;;;17.55;100.00;93100.91;2570759;23;20009;-90
2023/09/11 07:33:23;;;;;;;7.57;6.70;;;;;;;17.74;100.00;93107.75;2571163;23;20010;-92
2023/09/11 07:34:24;;;;;;;7.80;6.93;;;;;;;17.81;100.00;93095.81;2561101;23;20000;-90
2023/09/11 07:35:28;;;;;;;9.10;6.75;;;;;;;17.88;100.00;93100.13;2557705;23;20001;-89
2023/09/11 07:36:32;;;;;;;6.80;6.20;;;;;;;17.91;100.00;93093.78;2571252;22;20428;-89
2023/09/11 07:37:37;;;;;;;10.75;7.53;;;;;;;18.01;100.00;93106.03;2571282;23;20004;-91
2023/09/11 07:38:44;;;;;;;7.70;6.43;;;;;;;18.11;100.00;93097.38;2571569;23;20100;-90
2023/09/11 07:39:45;;;;;;;8.50;6.90;;;;;;;18.19;100.00;93097.75;2560415;23;20001;-91
2023/09/11 07:40:46;;;;;;;8.52;7.35;;;;;;;18.26;100.00;93105.53;2558092;23;20060;-89
2023/09/11 07:41:50;;;;;;;8.35;6.60;;;;;;;18.27;100.00;93101.59;2582575;22;20004;-89
2023/09/11 07:43:00;;;;;;;9.98;6.63;;;;;;;18.36;100.00;93103.47;2571205;23;20071;-91
2023/09/11 07:44:01;;;;;;;9.43;7.03;;;;;;;18.34;100.00;93101.22;2562062;23;20009;-91
2023/09/11 07:45:02;;;;;;;7.07;6.30;;;;;;;18.50;100.00;93101.97;2570627;23;20353;-92
2023/09/11 07:46:06;;;;;;;7.32;6.43;;;;;;;18.51;100.00;93098.78;2558567;23;20353;-90
2023/09/11 07:47:12;;;;;;;6.70;5.63;;;;;;;18.76;100.00;93099.47;2559378;23;20001;-89
2023/09/11 07:48:16;;;;;;;9.68;6.50;;;;;;;18.74;100.00;93102.63;2559806;23;20067;-91
2023/09/11 07:49:20;;;;;;;6.88;6.13;;;;;;;18.81;100.00;93096.84;2559565;23;20009;-90
2023/09/11 07:50:25;;;;;;;6.63;6.03;;;;;;;18.89;100.00;93107.31;2570809;23;20012;-91
2023/09/11 07:51:26;;;;;;;9.27;6.25;;;;;;;18.92;100.00;93099.00;2572686;22;20004;-90
2023/09/11 07:52:30;;;;;;;8.60;6.35;;;;;;;18.85;100.00;93097.41;2570792;23;20011;-89
2023/09/11 07:53:50;;;;;;;10.00;6.60;;;;;;;19.15;100.00;93097.34;2558937;23;20005;-92
2023/09/11 07:54:54;;;;;;;10.13;6.65;;;;;;;19.12;100.00;93099.03;2565762;23;20005;-91
2023/09/11 07:55:58;;;;;;;11.52;6.25;;;;;;;19.27;100.00;93107.16;2559277;23;20044;-92
2023/09/11 07:57:02;;;;;;;7.93;6.38;;;;;;;19.43;100.00;93099.69;2571890;22;20633;-90
2023/09/11 07:58:12;;;;;;;7.80;6.28;;;;;;;19.53;100.00;93104.50;2571180;23;20012;-89
2023/09/11 07:59:13;;;;;;;8.05;6.22;;;;;;;19.65;100.00;93097.31;2562088;23;20437;-93
2023/09/11 08:00:15;;;;;;;7.28;6.65;;;;;;;19.74;100.00;93097.16;2557280;23;20021;-91
2023/09/11 08:01:18;;;;;;;6.70;6.10;;;;;;;19.81;100.00;93096.78;2570532;23;20062;-90
2023/09/11 08:02:22;;;;;;;6.95;5.72;;;;;;;19.95;100.00;93105.31;2570998;22;20004;-90
2023/09/11 08:03:26;;;;;;;9.23;6.50;;;;;;;19.92;100.00;93100.81;2582869;22;20005;-90
2023/09/11 08:04:36;;;;;;;6.97;6.28;;;;;;;19.98;100.00;93099.69;2571170;23;20004;-90
2023/09/11 08:05:37;;;;;;;6.55;5.95;;;;;;;20.00;100.00;93101.91;2571850;23;20016;-90
2023/09/11 08:06:38;;;;;;;6.78;6.07;;;;;;;20.09;100.00;93102.50;2570263;23;20031;-91
2023/09/11 08:07:42;;;;;;;6.10;5.55;;;;;;;20.13;100.00;93110.44;2558211;23;20111;-90
2023/09/11 08:08:46;;;;;;;8.40;6.28;;;;;;;20.10;100.00;93106.69;2571410;22;20075;-89
2023/09/11 08:09:52;;;;;;;8.30;5.57;;;;;;;20.26;100.00;93101.94;2595499;22;20007;-90
2023/09/11 08:10:56;;;;;;;7.63;6.38;;;;;;;20.33;100.00;93107.69;2594120;22;20004;-90
2023/09/11 08:12:00;;;;;;;6.60;6.00;;;;;;;20.29;100.00;93106.44;2558569;23;20005;-93
2023/09/11 08:13:04;;;;;;;5.85;5.35;;;;;;;20.61;100.00;93102.56;2559389;23;20053;-90
2023/09/11 08:14:40;;;;;;;6.57;5.97;;;;;;;20.91;100.00;93109.72;2558929;23;20076;-91
2023/09/11 08:15:44;;;;;;;6.43;5.82;;;;;;;20.99;100.00;93111.50;2515348;23;20013;-90
2023/09/11 08:16:49;;;;;;;6.13;5.60;;;;;;;20.98;100.00;93098.41;2521170;23;20057;-90
2023/09/11 08:17:50;;;;;;;6.25;5.65;;;;;;;20.94;100.00;93103.31;2520157;23;20017;-92
2023/09/11 08:18:54;;;;;;;7.20;6.22;;;;;;;20.99;100.00;93103.38;2520754;23;20013;-91
2023/09/11 08:20:04;;;;;;;9.15;5.88;;;;;;;21.05;100.00;93095.97;2561136;23;20008;-91
2023/09/11 08:21:05;;;;;;;6.80;6.10;;;;;;;20.96;100.00;93100.84;2562146;23;20001;-90
2023/09/11 08:22:07;;;;;;;6.18;5.60;;;;;;;21.04;100.00;93101.91;2557974;23;20101;-92
2023/09/11 08:23:11;;;;;;;10.32;6.30;;;;;;;21.04;100.00;93096.47;2569702;23;20005;-91
2023/09/11 08:24:14;;;;;;;7.10;6.00;;;;;;;21.08;100.00;93100.47;2570233;23;20051;-89
2023/09/11 08:25:18;;;;;;;6.35;5.75;;;;;;;21.09;100.00;93101.94;2570405;23;20257;-90
2023/09/11 08:26:23;;;;;;;7.60;5.55;;;;;;;21.11;100.00;93096.00;2571078;22;20011;-87
2023/09/11 08:27:27;;;;;;;7.07;5.70;;;;;;;21.12;100.00;93100.97;2582390;23;20008;-90
2023/09/11 08:28:31;;;;;;;7.03;6.15;;;;;;;21.19;100.00;93107.94;2583216;22;20026;-90
2023/09/11 08:29:35;;;;;;;9.05;6.10;;;;;;;21.20;100.00;93105.97;2582348;23;20004;-90
2023/09/11 08:30:39;;;;;;;8.75;6.03;;;;;;;21.37;100.00;93102.13;2571724;22;20742;-91
2023/09/11 08:31:43;;;;;;;8.65;5.68;;;;;;;21.51;100.00;93110.63;2570776;23;20012;-90
2023/09/11 08:32:47;;;;;;;8.18;5.72;;;;;;;21.62;100.00;93111.44;2559353;23;20036;-92
2023/09/11 08:33:51;;;;;;;8.65;6.13;;;;;;;21.74;100.00;93108.78;2559131;23;20001;-90
2023/09/11 08:35:00;;;;;;;6.53;5.47;;;;;;;21.70;100.00;93106.28;2571116;22;20034;-90
2023/09/11 08:36:01;;;;;;;6.68;6.07;;;;;;;21.91;100.00;93114.31;2571134;23;20000;-91
2023/09/11 08:37:03;;;;;;;6.93;5.40;;;;;;;21.81;100.00;93109.03;2570316;22;20098;-91
2023/09/11 08:38:07;;;;;;;7.28;6.15;;;;;;;21.95;100.00;93112.06;2570262;23;20004;-88
2023/09/11 08:39:11;;;;;;;6.30;5.68;;;;;;;22.12;100.00;93107.47;2558686;23;20052;-90